sensor_id;sensor_type;location;lat;lon;timestamp;P1;durP1;ratioP1;P2;durP2;ratioP2
40815;SDS011;26535;48.788;9.214;2024-03-22T00:01:49;33.38;;;16.90;;
40815;SDS011;26535;48.788;9.214;2024-03-22T00:04:58;33.72;;;16.75;;
40815;SDS011;26535;48.788;9.214;2024-03-22T00:07:40;36.42;;;18.20;;
40815;SDS011;26535;48.788;9.214;2024-03-22T00:10:13;33.55;;;17.17;;
40815;SDS011;26535;48.788;9.214;2024-03-22T06:02:14;19.05;;;12.00;;
40815;SDS011;26535;48.788;9.214;2024-03-22T06:04:47;22.90;;;12.20;;
40815;SDS011;26535;48.788;9.214;2024-03-22T06:07:12;23.42;;;12.70;;
40815;SDS011;26535;48.788;9.214;2024-03-22T06:09:39;19.70;;;13.18;;
40815;SDS011;26535;48.788;9.214;2024-03-22T06:12:14;21.13;;;13.02;;
40815;SDS011;26535;48.788;9.214;2024-03-22T06:14:41;23.25;;;13.75;;
40815;SDS011;26535;48.788;9.214;2024-03-22T06:17:08;18.17;;;12.15;;
40815;SDS011;26535;48.788;9.214;2024-03-22T06:19:34;19.77;;;13.43;;
40815;SDS011;26535;48.788;9.214;2024-03-22T06:22:00;20.40;;;12.30;;
40815;SDS011;26535;48.788;9.214;2024-03-22T06:24:27;20.40;;;11.98;;
40815;SDS011;26535;48.788;9.214;2024-03-22T06:26:52;21.08;;;12.73;;
40815;SDS011;26535;48.788;9.214;2024-03-22T06:29:18;18.58;;;12.32;;
40815;SDS011;26535;48.788;9.214;2024-03-22T06:31:44;18.30;;;12.13;;
40815;SDS011;26535;48.788;9.214;2024-03-22T06:34:09;20.27;;;12.55;;
40815;SDS011;26535;48.788;9.214;2024-03-22T06:36:35;19.33;;;12.60;;
40815;SDS011;26535;48.788;9.214;2024-03-22T06:39:01;17.92;;;11.50;;
40815;SDS011;26535;48.788;9.214;2024-03-22T06:41:29;17.52;;;11.77;;
40815;SDS011;26535;48.788;9.214;2024-03-22T06:43:55;16.95;;;11.85;;
40815;SDS011;26535;48.788;9.214;2024-03-22T06:46:21;17.63;;;12.18;;
40815;SDS011;26535;48.788;9.214;2024-03-22T06:48:55;17.92;;;11.50;;
40815;SDS011;26535;48.788;9.214;2024-03-22T06:51:20;16.38;;;11.00;;
40815;SDS011;26535;48.788;9.214;2024-03-22T06:53:46;20.05;;;12.32;;
40815;SDS011;26535;48.788;9.214;2024-03-22T06:56:13;19.80;;;11.65;;
40815;SDS011;26535;48.788;9.214;2024-03-22T06:58:39;17.63;;;11.63;;
40815;SDS011;26535;48.788;9.214;2024-03-22T07:01:05;16.67;;;11.23;;
40815;SDS011;26535;48.788;9.214;2024-03-22T07:03:32;21.00;;;12.18;;
40815;SDS011;26535;48.788;9.214;2024-03-22T07:05:58;17.67;;;11.25;;
40815;SDS011;26535;48.788;9.214;2024-03-22T07:08:24;17.17;;;11.10;;
40815;SDS011;26535;48.788;9.214;2024-03-22T07:10:50;20.02;;;11.75;;
40815;SDS011;26535;48.788;9.214;2024-03-22T07:13:21;20.52;;;12.07;;
40815;SDS011;26535;48.788;9.214;2024-03-22T07:15:47;19.15;;;11.75;;
40815;SDS011;26535;48.788;9.214;2024-03-22T07:18:13;19.20;;;11.68;;
40815;SDS011;26535;48.788;9.214;2024-03-22T07:20:42;17.05;;;11.13;;
40815;SDS011;26535;48.788;9.214;2024-03-22T07:23:08;28.65;;;15.18;;
40815;SDS011;26535;48.788;9.214;2024-03-22T07:25:34;20.52;;;12.50;;
40815;SDS011;26535;48.788;9.214;2024-03-22T07:27:59;18.38;;;12.07;;
40815;SDS011;26535;48.788;9.214;2024-03-22T07:30:25;17.55;;;12.00;;
40815;SDS011;26535;48.788;9.214;2024-03-22T07:33:20;21.92;;;10.75;;
40815;SDS011;26535;48.788;9.214;2024-03-22T07:35:46;23.10;;;12.20;;
40815;SDS011;26535;48.788;9.214;2024-03-22T07:38:15;15.82;;;10.73;;
40815;SDS011;26535;48.788;9.214;2024-03-22T07:40:54;16.45;;;10.43;;
40815;SDS011;26535;48.788;9.214;2024-03-22T07:43:20;18.63;;;11.98;;
40815;SDS011;26535;48.788;9.214;2024-03-22T07:45:48;18.85;;;11.27;;
40815;SDS011;26535;48.788;9.214;2024-03-22T07:48:14;18.60;;;11.20;;
40815;SDS011;26535;48.788;9.214;2024-03-22T07:50:58;18.23;;;11.93;;
40815;SDS011;26535;48.788;9.214;2024-03-22T07:53:30;16.92;;;11.50;;
40815;SDS011;26535;48.788;9.214;2024-03-22T07:56:30;16.42;;;11.57;;
40815;SDS011;26535;48.788;9.214;2024-03-22T07:58:56;18.77;;;10.60;;
40815;SDS011;26535;48.788;9.214;2024-03-22T08:01:25;21.00;;;11.82;;
40815;SDS011;26535;48.788;9.214;2024-03-22T08:08:23;17.83;;;11.20;;
40815;SDS011;26535;48.788;9.214;2024-03-22T08:11:34;20.73;;;11.48;;
40815;SDS011;26535;48.788;9.214;2024-03-22T08:14:02;16.83;;;10.50;;
40815;SDS011;26535;48.788;9.214;2024-03-22T08:16:29;18.88;;;10.65;;
40815;SDS011;26535;48.788;9.214;2024-03-22T08:19:15;20.27;;;9.98;;
40815;SDS011;26535;48.788;9.214;2024-03-22T08:22:00;15.07;;;9.82;;
40815;SDS011;26535;48.788;9.214;2024-03-22T08:24:26;18.42;;;10.75;;
40815;SDS011;26535;48.788;9.214;2024-03-22T08:26:52;15.70;;;10.27;;
40815;SDS011;26535;48.788;9.214;2024-03-22T08:29:52;16.00;;;10.30;;
40815;SDS011;26535;48.788;9.214;2024-03-22T08:32:21;17.40;;;10.52;;
40815;SDS011;26535;48.788;9.214;2024-03-22T08:34:46;18.25;;;11.35;;
40815;SDS011;26535;48.788;9.214;2024-03-22T08:37:18;16.05;;;10.60;;
40815;SDS011;26535;48.788;9.214;2024-03-22T08:40:00;17.35;;;10.32;;
40815;SDS011;26535;48.788;9.214;2024-03-22T08:42:29;19.30;;;11.07;;
40815;SDS011;26535;48.788;9.214;2024-03-22T08:44:55;14.82;;;9.40;;
40815;SDS011;26535;48.788;9.214;2024-03-22T08:48:01;16.30;;;10.00;;
40815;SDS011;26535;48.788;9.214;2024-03-22T08:50:54;15.50;;;9.00;;
40815;SDS011;26535;48.788;9.214;2024-03-22T08:59:21;16.88;;;10.07;;
40815;SDS011;26535;48.788;9.214;2024-03-22T09:02:20;17.25;;;9.60;;
40815;SDS011;26535;48.788;9.214;2024-03-22T09:04:58;17.25;;;9.48;;
40815;SDS011;26535;48.788;9.214;2024-03-22T09:07:46;13.10;;;9.15;;
40815;SDS011;26535;48.788;9.214;2024-03-22T09:10:16;17.88;;;9.75;;
40815;SDS011;26535;48.788;9.214;2024-03-22T09:15:40;14.75;;;8.63;;
40815;SDS011;26535;48.788;9.214;2024-03-22T09:21:22;18.67;;;9.65;;
40815;SDS011;26535;48.788;9.214;2024-03-22T09:27:37;18.63;;;8.95;;
40815;SDS011;26535;48.788;9.214;2024-03-22T09:30:47;15.98;;;7.75;;
40815;SDS011;26535;48.788;9.214;2024-03-22T09:36:11;14.82;;;7.80;;
40815;SDS011;26535;48.788;9.214;2024-03-22T09:39:02;11.68;;;6.90;;
40815;SDS011;26535;48.788;9.214;2024-03-22T09:41:27;12.75;;;7.22;;
40815;SDS011;26535;48.788;9.214;2024-03-22T09:47:48;12.52;;;5.72;;
40815;SDS011;26535;48.788;9.214;2024-03-22T09:54:31;8.00;;;5.57;;
40815;SDS011;26535;48.788;9.214;2024-03-22T09:58:19;8.65;;;4.70;;
40815;SDS011;26535;48.788;9.214;2024-03-22T10:12:19;5.85;;;3.53;;
40815;SDS011;26535;48.788;9.214;2024-03-22T10:15:23;5.90;;;3.43;;
40815;SDS011;26535;48.788;9.214;2024-03-22T10:18:04;8.98;;;5.03;;
40815;SDS011;26535;48.788;9.214;2024-03-22T10:20:45;6.35;;;4.03;;
40815;SDS011;26535;48.788;9.214;2024-03-22T10:23:11;5.47;;;3.50;;
40815;SDS011;26535;48.788;9.214;2024-03-22T10:25:37;7.03;;;3.60;;
40815;SDS011;26535;48.788;9.214;2024-03-22T10:34:38;4.60;;;2.53;;
40815;SDS011;26535;48.788;9.214;2024-03-22T10:37:06;6.57;;;3.05;;
40815;SDS011;26535;48.788;9.214;2024-03-22T10:39:35;5.72;;;2.88;;
40815;SDS011;26535;48.788;9.214;2024-03-22T13:04:21;3.63;;;2.03;;
40815;SDS011;26535;48.788;9.214;2024-03-22T13:06:51;6.95;;;2.65;;
40815;SDS011;26535;48.788;9.214;2024-03-22T13:13:22;4.82;;;2.60;;
40815;SDS011;26535;48.788;9.214;2024-03-22T13:16:22;4.63;;;2.53;;
40815;SDS011;26535;48.788;9.214;2024-03-22T13:19:22;6.03;;;2.53;;
40815;SDS011;26535;48.788;9.214;2024-03-22T13:22:17;4.28;;;1.80;;
40815;SDS011;26535;48.788;9.214;2024-03-22T13:24:44;4.25;;;2.00;;
40815;SDS011;26535;48.788;9.214;2024-03-22T13:27:10;4.22;;;2.10;;
40815;SDS011;26535;48.788;9.214;2024-03-22T13:29:46;5.38;;;2.20;;
40815;SDS011;26535;48.788;9.214;2024-03-22T13:32:18;5.57;;;1.98;;
40815;SDS011;26535;48.788;9.214;2024-03-22T13:35:01;4.72;;;1.85;;
40815;SDS011;26535;48.788;9.214;2024-03-22T13:39:55;4.72;;;1.98;;
40815;SDS011;26535;48.788;9.214;2024-03-22T13:42:21;5.30;;;1.90;;
40815;SDS011;26535;48.788;9.214;2024-03-22T13:44:47;5.22;;;1.90;;
40815;SDS011;26535;48.788;9.214;2024-03-22T13:47:12;4.05;;;1.58;;
40815;SDS011;26535;48.788;9.214;2024-03-22T13:49:38;5.00;;;1.70;;
40815;SDS011;26535;48.788;9.214;2024-03-22T13:52:24;4.28;;;1.83;;
40815;SDS011;26535;48.788;9.214;2024-03-22T14:00:48;5.85;;;2.00;;
40815;SDS011;26535;48.788;9.214;2024-03-22T14:03:26;3.80;;;1.88;;
40815;SDS011;26535;48.788;9.214;2024-03-22T14:13:07;4.25;;;2.53;;
40815;SDS011;26535;48.788;9.214;2024-03-22T14:15:39;5.18;;;2.53;;
40815;SDS011;26535;48.788;9.214;2024-03-22T14:18:05;7.35;;;3.63;;
40815;SDS011;26535;48.788;9.214;2024-03-22T14:21:01;6.50;;;2.60;;
40815;SDS011;26535;48.788;9.214;2024-03-22T14:23:26;5.35;;;2.45;;
40815;SDS011;26535;48.788;9.214;2024-03-22T14:25:57;6.05;;;2.72;;
40815;SDS011;26535;48.788;9.214;2024-03-22T14:28:23;5.28;;;2.55;;
40815;SDS011;26535;48.788;9.214;2024-03-22T14:30:49;6.03;;;2.55;;
40815;SDS011;26535;48.788;9.214;2024-03-22T14:33:36;4.20;;;2.38;;
40815;SDS011;26535;48.788;9.214;2024-03-22T14:36:03;7.30;;;2.65;;
40815;SDS011;26535;48.788;9.214;2024-03-22T14:38:29;5.90;;;2.50;;
40815;SDS011;26535;48.788;9.214;2024-03-22T14:41:02;5.10;;;2.05;;
40815;SDS011;26535;48.788;9.214;2024-03-22T14:43:37;4.78;;;1.95;;
40815;SDS011;26535;48.788;9.214;2024-03-22T14:46:06;5.07;;;1.70;;
40815;SDS011;26535;48.788;9.214;2024-03-22T14:48:41;5.72;;;1.50;;
40815;SDS011;26535;48.788;9.214;2024-03-22T14:51:12;3.75;;;1.35;;
40815;SDS011;26535;48.788;9.214;2024-03-22T14:56:26;4.65;;;1.40;;
40815;SDS011;26535;48.788;9.214;2024-03-22T14:58:52;3.60;;;1.20;;
40815;SDS011;26535;48.788;9.214;2024-03-22T15:01:17;2.92;;;1.20;;
40815;SDS011;26535;48.788;9.214;2024-03-22T15:03:52;3.47;;;1.27;;
40815;SDS011;26535;48.788;9.214;2024-03-22T15:06:18;4.88;;;1.25;;
40815;SDS011;26535;48.788;9.214;2024-03-22T15:08:44;4.70;;;1.38;;
40815;SDS011;26535;48.788;9.214;2024-03-22T15:11:29;4.22;;;1.38;;
40815;SDS011;26535;48.788;9.214;2024-03-22T15:14:04;2.97;;;1.08;;
40815;SDS011;26535;48.788;9.214;2024-03-22T15:16:58;2.47;;;0.88;;
40815;SDS011;26535;48.788;9.214;2024-03-22T15:19:31;3.25;;;1.00;;
40815;SDS011;26535;48.788;9.214;2024-03-22T15:22:15;6.53;;;1.77;;
40815;SDS011;26535;48.788;9.214;2024-03-22T15:25:08;4.13;;;1.13;;
40815;SDS011;26535;48.788;9.214;2024-03-22T15:27:34;3.55;;;1.35;;
40815;SDS011;26535;48.788;9.214;2024-03-22T15:30:00;2.83;;;1.30;;
40815;SDS011;26535;48.788;9.214;2024-03-22T15:32:25;4.43;;;1.08;;
40815;SDS011;26535;48.788;9.214;2024-03-22T15:46:28;2.75;;;1.20;;
40815;SDS011;26535;48.788;9.214;2024-03-22T15:48:54;3.55;;;1.55;;
40815;SDS011;26535;48.788;9.214;2024-03-22T15:51:20;3.80;;;1.13;;
40815;SDS011;26535;48.788;9.214;2024-03-22T15:53:45;4.07;;;1.40;;
40815;SDS011;26535;48.788;9.214;2024-03-22T16:29:46;3.55;;;1.75;;
40815;SDS011;26535;48.788;9.214;2024-03-22T16:35:01;4.95;;;1.80;;
40815;SDS011;26535;48.788;9.214;2024-03-22T18:23:48;5.60;;;2.90;;
40815;SDS011;26535;48.788;9.214;2024-03-22T18:26:14;8.80;;;3.33;;
40815;SDS011;26535;48.788;9.214;2024-03-22T18:28:40;6.53;;;3.55;;
40815;SDS011;26535;48.788;9.214;2024-03-22T18:31:05;6.80;;;3.63;;
40815;SDS011;26535;48.788;9.214;2024-03-22T18:36:21;6.22;;;2.90;;
40815;SDS011;26535;48.788;9.214;2024-03-22T18:38:55;6.78;;;2.70;;
40815;SDS011;26535;48.788;9.214;2024-03-22T18:42:05;8.48;;;3.25;;
40815;SDS011;26535;48.788;9.214;2024-03-22T18:44:36;7.10;;;3.30;;
40815;SDS011;26535;48.788;9.214;2024-03-22T18:47:10;9.90;;;4.13;;
40815;SDS011;26535;48.788;9.214;2024-03-22T18:49:58;9.18;;;4.05;;
40815;SDS011;26535;48.788;9.214;2024-03-22T18:55:49;7.97;;;5.30;;
40815;SDS011;26535;48.788;9.214;2024-03-22T18:58:41;11.68;;;5.43;;
40815;SDS011;26535;48.788;9.214;2024-03-22T19:01:14;10.20;;;5.35;;
40815;SDS011;26535;48.788;9.214;2024-03-22T19:04:12;8.48;;;4.82;;
40815;SDS011;26535;48.788;9.214;2024-03-22T19:07:23;10.25;;;4.55;;
40815;SDS011;26535;48.788;9.214;2024-03-22T19:10:04;7.47;;;4.53;;
40815;SDS011;26535;48.788;9.214;2024-03-22T19:12:39;8.80;;;4.10;;
40815;SDS011;26535;48.788;9.214;2024-03-22T19:15:05;9.18;;;4.32;;
40815;SDS011;26535;48.788;9.214;2024-03-22T19:17:34;9.55;;;4.20;;
40815;SDS011;26535;48.788;9.214;2024-03-22T19:20:06;8.52;;;3.97;;
40815;SDS011;26535;48.788;9.214;2024-03-22T19:22:35;7.65;;;3.70;;
40815;SDS011;26535;48.788;9.214;2024-03-22T19:25:07;8.70;;;4.40;;
40815;SDS011;26535;48.788;9.214;2024-03-22T19:27:39;7.82;;;4.00;;
40815;SDS011;26535;48.788;9.214;2024-03-22T19:30:43;8.73;;;4.70;;
40815;SDS011;26535;48.788;9.214;2024-03-22T19:40:21;9.15;;;5.30;;
40815;SDS011;26535;48.788;9.214;2024-03-22T19:42:53;7.32;;;4.25;;
40815;SDS011;26535;48.788;9.214;2024-03-22T19:45:39;7.50;;;4.32;;
40815;SDS011;26535;48.788;9.214;2024-03-22T19:48:24;10.13;;;4.82;;
40815;SDS011;26535;48.788;9.214;2024-03-22T19:51:10;10.10;;;5.03;;
40815;SDS011;26535;48.788;9.214;2024-03-22T19:53:40;9.13;;;5.72;;
40815;SDS011;26535;48.788;9.214;2024-03-22T19:56:13;13.27;;;7.13;;
40815;SDS011;26535;48.788;9.214;2024-03-22T19:58:42;9.73;;;5.57;;
40815;SDS011;26535;48.788;9.214;2024-03-22T20:01:13;12.68;;;6.72;;
40815;SDS011;26535;48.788;9.214;2024-03-22T20:03:41;20.00;;;9.90;;
40815;SDS011;26535;48.788;9.214;2024-03-22T20:06:15;19.15;;;8.05;;
40815;SDS011;26535;48.788;9.214;2024-03-22T20:11:37;11.40;;;6.60;;
40815;SDS011;26535;48.788;9.214;2024-03-22T20:14:03;12.95;;;6.80;;
40815;SDS011;26535;48.788;9.214;2024-03-22T20:16:32;11.70;;;5.30;;
40815;SDS011;26535;48.788;9.214;2024-03-22T20:19:07;10.15;;;5.47;;
40815;SDS011;26535;48.788;9.214;2024-03-22T20:22:16;12.32;;;6.13;;
40815;SDS011;26535;48.788;9.214;2024-03-22T20:24:50;12.43;;;6.18;;
40815;SDS011;26535;48.788;9.214;2024-03-22T20:27:18;11.10;;;5.88;;
40815;SDS011;26535;48.788;9.214;2024-03-22T20:30:02;9.60;;;5.70;;
40815;SDS011;26535;48.788;9.214;2024-03-22T20:32:29;10.23;;;5.53;;
40815;SDS011;26535;48.788;9.214;2024-03-22T20:34:54;11.32;;;6.13;;
40815;SDS011;26535;48.788;9.214;2024-03-22T20:37:38;9.23;;;5.32;;
